Aérodrome :
LOGIN :

S'inscrire | Disclaimer

   EN    FR    IT 

 










Légende :    VFR   VFR Marginal   IFR   IFR Intensif   IFR Très Intensif
Visi : 
Plafond : 
>= 8 km
>= 3000ft
5 à 8 km
1000 à 3000 ft
1500m à 5 km
500 à 1000 ft
800 à 1500m
200 à 500 ft
< 800m
< 200 ft
Symboles :   Orages  Brouillard  Fortes neiges  Fortes précipitations  Vent > 20 kt
SIGMETs :   Divers  Orages  Givrage  Turbulence  Onde Orograph.  Cendres Volcan.







- Altitude de l'aérodrome : 870 ft
- Code IATA : ETZ
- Voir les cartes d'approche


LFJL - Metz Nancy Lorraine

DERNIER METAR :
  • 280030Z AUTO VRB02KT CAVOK 19/15 Q1019 NOSIG

METARs EXPIRÉS :
  • 280000Z AUTO 16007KT 9999 NCD 19/15 Q1018 NOSIG
  • 272330Z AUTO 17007KT 9999 NCD 20/15 Q1018 NOSIG
  • 272300Z AUTO 18005KT 9999 NCD 20/15 Q1019 NOSIG
  • 272230Z AUTO 20006KT 9999 NCD 21/15 Q1019 NOSIG

TAF TAF LFJL
Valide du 28 à 00h jusqu'au 29 à 00h UTC


272300Z 2800/2824 16005KT CAVOK
PROB30
TEMPO 2813/2820 VRB15G30KT 3000 TSRA SCT070CB
Pas de NOTAMs connus pour ce terrain.



MET'MAP, la Météo Aéronautique d'un coup d'oeil ! - Copyright ORBIFLY Décembre 2007 - Disclaimer

ORBIFLY MET'MAP TEAM :

Programmation & Développement : Alexandra Zaïnal
Conception & Développement : Baudouin d'Aumeries
Co-Programmation & Développement : Marc-Olivier Méhu
Soutien technique & logistique : Manuel Goepfert

Contact : metmap@orbifly.com




SOURCES & CREDITS :

   NOAA